createdAt,value
2023-02-15T01:14:06.095Z,59.60
2023-02-15T03:05:35.258Z,60.00
2023-02-15T04:09:34.822Z,59.80
2023-02-15T04:43:56.905Z,59.90
2023-02-15T05:11:06.972Z,60.40
2023-02-15T05:24:31.871Z,60.00
2023-02-15T05:31:08.758Z,59.80
2023-02-15T06:21:18.456Z,60.20
2023-02-15T06:55:09.810Z,59.90
2023-02-15T07:51:48.851Z,60.00
2023-02-15T08:48:34.286Z,60.40
2023-02-15T13:27:29.005Z,61.00
2023-02-15T13:32:54.965Z,60.80
2023-02-15T13:38:33.024Z,60.80
2023-02-15T13:44:08.007Z,60.60
2023-02-15T13:49:46.995Z,60.40
2023-02-15T13:55:34.012Z,60.60
2023-02-15T14:01:06.171Z,60.60
2023-02-15T14:06:49.087Z,60.70
2023-02-15T14:12:35.037Z,60.70
2023-02-15T14:18:11.990Z,60.70
2023-02-15T14:23:49.044Z,60.90
2023-02-15T14:29:22.999Z,61.00
2023-02-15T14:35:07.038Z,60.60
2023-02-15T14:40:59.026Z,60.40
2023-02-15T14:46:32.212Z,60.40
2023-02-15T14:52:13.040Z,60.40
2023-02-15T14:57:56.028Z,60.30
2023-02-15T15:03:28.042Z,60.00
2023-02-15T15:09:03.195Z,60.00
2023-02-15T15:14:49.051Z,59.90
2023-02-15T15:20:16.110Z,59.90
2023-02-15T15:25:52.064Z,59.90
2023-02-15T15:31:19.158Z,60.00
2023-02-15T15:37:13.048Z,59.70
2023-02-15T15:42:47.101Z,60.00
2023-02-15T15:48:34.058Z,59.80
2023-02-15T15:54:01.091Z,60.00
2023-02-15T15:59:30.066Z,60.00
2023-02-15T16:04:53.074Z,60.10
2023-02-15T16:10:29.068Z,59.80
2023-02-15T16:16:00.125Z,59.90
2023-02-15T16:21:26.064Z,59.70
2023-02-15T16:27:06.087Z,59.70
2023-02-15T16:32:36.061Z,59.90
2023-02-15T16:38:00.091Z,60.00
2023-02-15T16:43:32.138Z,60.00
2023-02-15T16:49:00.137Z,59.90
2023-02-15T16:54:31.117Z,60.00
2023-02-15T16:59:58.096Z,60.10
2023-02-15T17:05:32.105Z,60.00
2023-02-15T17:11:18.114Z,59.90
2023-02-15T17:16:47.143Z,60.00
2023-02-15T17:22:15.110Z,59.70
2023-02-15T17:27:42.096Z,59.90
2023-02-15T17:33:08.092Z,60.10
2023-02-15T17:38:34.105Z,60.10
2023-02-15T17:43:57.156Z,60.10
2023-02-15T17:49:20.116Z,60.10
2023-02-15T17:55:01.121Z,60.00
2023-02-15T18:00:47.140Z,59.90
2023-02-15T18:06:28.138Z,59.80
2023-02-15T18:11:55.124Z,60.50
2023-02-15T18:17:19.201Z,59.70
2023-02-15T18:22:44.140Z,59.80
2023-02-15T18:28:09.160Z,59.90
2023-02-15T18:33:48.183Z,59.80
2023-02-15T18:39:11.141Z,60.00
2023-02-15T18:44:36.143Z,59.90
2023-02-15T18:49:59.149Z,59.90
2023-02-15T18:55:31.171Z,60.10
2023-02-15T19:00:56.203Z,59.80
2023-02-15T19:06:20.182Z,60.30
2023-02-15T19:11:43.187Z,59.70
2023-02-15T19:17:08.168Z,60.00
2023-02-15T19:22:35.179Z,59.80
2023-02-15T19:27:59.217Z,60.40
2023-02-15T19:33:27.280Z,60.30
2023-02-15T19:38:50.206Z,60.40
2023-02-15T19:44:16.189Z,60.10
2023-02-15T19:49:41.222Z,60.10
2023-02-15T19:55:04.226Z,60.00
2023-02-15T20:00:32.253Z,60.00
2023-02-15T20:05:57.210Z,59.90
2023-02-15T20:11:24.240Z,59.90
2023-02-15T20:16:54.248Z,60.00
2023-02-15T20:22:29.217Z,60.10
2023-02-15T20:27:52.216Z,60.40
2023-02-15T20:33:15.241Z,60.00
2023-02-15T20:38:41.221Z,59.90
2023-02-15T20:44:04.311Z,60.00
2023-02-15T20:49:27.229Z,60.10
2023-02-15T20:54:52.325Z,59.90
2023-02-15T21:00:15.246Z,60.10
2023-02-15T21:05:40.238Z,60.10
2023-02-15T21:11:12.258Z,60.00
2023-02-15T21:16:35.330Z,60.00
2023-02-15T21:21:59.294Z,60.00
2023-02-15T21:27:24.244Z,59.90
2023-02-15T21:32:47.272Z,60.20
2023-02-15T21:38:11.255Z,60.10
2023-02-15T21:43:55.274Z,60.40
2023-02-15T21:49:13.278Z,60.30
2023-02-15T21:54:36.693Z,60.30
2023-02-15T22:00:01.295Z,60.40
2023-02-15T22:05:27.281Z,60.20
2023-02-15T22:10:50.325Z,60.30
2023-02-15T22:16:15.309Z,60.30
2023-02-15T22:21:38.293Z,60.20
2023-02-15T22:27:01.281Z,60.20
2023-02-15T22:32:31.369Z,60.30
2023-02-15T22:37:54.305Z,60.40
2023-02-15T22:43:19.308Z,60.30
2023-02-15T22:48:44.281Z,60.10
2023-02-15T22:54:07.299Z,60.10
2023-02-15T22:59:35.287Z,60.10
2023-02-15T23:05:00.347Z,60.40
2023-02-15T23:10:30.298Z,60.50
2023-02-15T23:15:55.325Z,60.70
2023-02-15T23:21:26.348Z,60.80
2023-02-15T23:26:49.343Z,60.90
2023-02-15T23:32:13.418Z,60.30
2023-02-15T23:37:38.290Z,60.10
2023-02-15T23:43:01.295Z,60.00
2023-02-15T23:48:40.332Z,60.00
2023-02-15T23:54:05.324Z,60.20
2023-02-15T23:59:32.356Z,60.20
